Time;durP1;ratioP1;P1;durP2;ratioP2;P2;SDS_P1;SDS_P2;PMS_P1;PMS_P2;Temp;Humidity;BMP_temperature;BMP_pressure;BME280_temperature;BME280_humidity;BME280_pressure;Samples;Min_cycle;Max_cycle;Signal;HPM_P1;HPM_P2
2023/01/06 21:39:17;;;;;;;29.63;13.95;;;20.10;99.90;;;;;;5110073;27;20411;-58
2023/01/06 21:44:26;;;;;;;30.05;13.98;;;20.10;99.90;;;;;;5110101;28;20081;-58
2023/01/06 21:46:52;;;;;;;30.98;13.98;;;20.30;99.90;;;;;;5108895;28;20052;-58
2023/01/06 21:49:18;;;;;;;30.58;14.85;;;20.30;99.90;;;;;;5110051;28;20077;-59
2023/01/06 21:51:47;;;;;;;41.90;16.35;;;20.40;99.90;;;;;;5110030;28;20028;-59
2023/01/06 21:54:13;;;;;;;28.40;14.82;;;20.50;99.90;;;;;;5109901;28;20012;-57
2023/01/06 21:56:39;;;;;;;27.08;14.18;;;20.50;99.90;;;;;;5108668;28;20027;-58
2023/01/06 21:59:06;;;;;;;25.25;14.85;;;20.60;99.90;;;;;;5109788;28;20537;-58
2023/01/06 22:01:32;;;;;;;26.70;13.82;;;20.60;99.90;;;;;;5109654;28;20034;-57
2023/01/06 22:03:57;;;;;;;20.58;12.10;;;20.70;99.90;;;;;;5109654;28;20106;-58
2023/01/06 22:06:24;;;;;;;25.42;13.63;;;20.70;99.90;;;;;;5109600;28;20024;-62
2023/01/06 22:08:51;;;;;;;24.15;14.13;;;20.80;99.90;;;;;;5109621;28;20016;-61
2023/01/06 22:11:17;;;;;;;28.48;13.50;;;20.80;99.90;;;;;;5109414;28;20031;-62
2023/01/06 22:13:43;;;;;;;29.15;14.43;;;20.80;99.90;;;;;;5109782;28;20032;-62
2023/01/06 22:16:10;;;;;;;27.77;13.82;;;20.80;99.90;;;;;;5109871;28;20049;-61
2023/01/06 22:18:35;;;;;;;22.70;14.30;;;20.90;99.90;;;;;;5109426;28;20372;-61
2023/01/06 22:21:02;;;;;;;25.88;13.90;;;20.90;99.90;;;;;;5109363;28;20031;-61
2023/01/06 22:23:31;;;;;;;23.80;13.45;;;20.90;99.90;;;;;;5109318;28;20023;-63
2023/01/06 22:25:57;;;;;;;24.08;13.80;;;21.00;99.90;;;;;;5109241;28;20024;-62
2023/01/06 22:28:22;;;;;;;25.45;13.98;;;21.00;99.90;;;;;;5109341;28;20030;-62
2023/01/06 22:30:50;;;;;;;23.05;13.70;;;20.90;99.90;;;;;;5107910;28;20113;-61
2023/01/06 22:33:17;;;;;;;30.95;13.75;;;21.00;99.90;;;;;;5109247;28;20015;-63
2023/01/06 22:35:43;;;;;;;30.10;15.18;;;21.00;99.90;;;;;;5109242;28;20038;-60
2023/01/06 22:38:09;;;;;;;28.05;14.65;;;21.00;99.90;;;;;;5067958;22;20053;-49
2023/01/06 22:40:34;;;;;;;27.27;13.95;;;21.00;99.90;;;;;;5047278;28;20891;-49
2023/01/06 22:43:03;;;;;;;28.73;14.85;;;21.00;99.90;;;;;;5048515;28;20021;-49
2023/01/06 22:45:29;;;;;;;22.38;12.77;;;21.00;99.90;;;;;;5045482;28;20054;-53
2023/01/06 22:47:55;;;;;;;28.23;12.80;;;21.00;99.90;;;;;;5034266;28;20057;-50
2023/01/06 22:50:20;;;;;;;26.63;13.73;;;21.00;99.90;;;;;;5027926;28;20028;-50
2023/01/06 22:52:46;;;;;;;21.05;12.80;;;21.00;99.90;;;;;;5034635;28;20028;-49
2023/01/06 22:55:12;;;;;;;36.45;13.80;;;21.00;99.90;;;;;;5034964;28;20025;-51
2023/01/06 22:57:38;;;;;;;23.75;13.52;;;21.00;99.90;;;;;;5033253;28;20022;-49
2023/01/06 23:00:11;;;;;;;20.58;12.95;;;21.00;99.90;;;;;;5034824;28;20424;-52
2023/01/06 23:02:37;;;;;;;25.58;11.82;;;21.00;99.90;;;;;;5034313;28;20022;-49
2023/01/06 23:05:03;;;;;;;26.83;12.98;;;21.00;99.90;;;;;;5029909;28;20018;-50
2023/01/06 23:07:29;;;;;;;26.33;14.07;;;21.00;99.90;;;;;;5034696;28;20025;-51
2023/01/06 23:09:55;;;;;;;22.13;13.88;;;21.00;99.90;;;;;;5034366;28;20018;-53
2023/01/06 23:12:20;;;;;;;28.30;12.77;;;21.00;99.90;;;;;;5034331;28;20021;-50
2023/01/06 23:14:46;;;;;;;23.83;13.25;;;21.00;99.90;;;;;;5034089;28;20501;-51
2023/01/06 23:17:12;;;;;;;22.73;13.38;;;21.00;99.90;;;;;;5021671;28;20485;-49
2023/01/06 23:19:38;;;;;;;20.83;13.50;;;21.00;99.90;;;;;;5034288;28;20021;-50
2023/01/06 23:22:03;;;;;;;24.60;13.57;;;21.00;99.90;;;;;;5033399;28;20497;-49
2023/01/06 23:24:29;;;;;;;22.88;13.30;;;21.00;99.90;;;;;;5049021;28;20037;-50
2023/01/06 23:26:55;;;;;;;22.92;13.48;;;21.00;99.90;;;;;;5032867;28;20063;-51
2023/01/06 23:29:21;;;;;;;20.95;13.88;;;21.00;99.90;;;;;;5034406;28;20025;-49
2023/01/06 23:31:46;;;;;;;23.20;12.55;;;21.00;99.90;;;;;;5033903;28;20030;-49
2023/01/06 23:34:16;;;;;;;18.75;12.98;;;21.00;99.90;;;;;;5034282;28;20110;-49
2023/01/06 23:36:42;;;;;;;19.90;12.60;;;21.00;99.90;;;;;;5034447;28;20390;-49
2023/01/06 23:39:11;;;;;;;25.88;13.07;;;21.00;99.90;;;;;;5033765;28;20103;-48
2023/01/06 23:41:38;;;;;;;21.60;12.27;;;21.00;99.90;;;;;;5033864;28;20189;-49
2023/01/06 23:44:04;;;;;;;24.17;13.65;;;21.00;99.90;;;;;;5033561;28;20053;-50
2023/01/06 23:46:33;;;;;;;20.80;11.52;;;21.00;99.90;;;;;;5027248;28;20381;-51
2023/01/06 23:48:58;;;;;;;26.88;13.05;;;21.00;99.90;;;;;;5027330;28;20029;-47
2023/01/06 23:51:26;;;;;;;19.48;13.57;;;21.00;99.90;;;;;;5033737;28;20079;-48
2023/01/06 23:53:52;;;;;;;;;;;21.00;99.90;;;;;;5032401;28;20014;-49
2023/01/06 23:56:22;;;;;;;21.20;12.35;;;21.00;99.90;;;;;;5033647;28;19912;-48
2023/01/06 23:58:51;;;;;;;17.60;11.85;;;21.00;99.90;;;;;;5033566;28;20128;-47
